createdAt,value
2022-11-20T00:01:37.630Z,17.70
2022-11-20T00:04:06.175Z,17.10
2022-11-20T00:06:34.220Z,16.50
2022-11-20T00:09:06.363Z,16.90
2022-11-20T00:11:36.337Z,17.30
2022-11-20T00:14:05.923Z,16.80
2022-11-20T00:16:36.101Z,17.80
2022-11-20T00:19:04.486Z,18.30
2022-11-20T00:21:33.262Z,18.70
2022-11-20T00:24:01.388Z,18.80
2022-11-20T00:26:30.094Z,17.60
2022-11-20T00:29:00.811Z,19.60
2022-11-20T00:31:30.086Z,18.90
2022-11-20T00:33:59.895Z,19.30
2022-11-20T00:36:29.972Z,18.10
2022-11-20T00:38:59.367Z,19.20
2022-11-20T00:41:29.405Z,19.70
2022-11-20T00:43:57.880Z,19.50
2022-11-20T00:46:27.872Z,19.50
2022-11-20T00:48:57.452Z,19.20
2022-11-20T00:51:27.446Z,18.70
2022-11-20T00:54:01.339Z,18.80
2022-11-20T00:56:30.121Z,17.20
2022-11-20T00:59:02.002Z,17.30
2022-11-20T01:01:30.560Z,17.50
2022-11-20T01:04:01.295Z,17.80
2022-11-20T01:06:33.296Z,16.70
2022-11-20T01:09:04.277Z,17.20
2022-11-20T01:11:38.029Z,17.40
2022-11-20T01:14:08.626Z,17.40
2022-11-20T01:16:40.838Z,17.70
2022-11-20T01:19:17.336Z,17.40
2022-11-20T01:21:51.282Z,17.80
2022-11-20T01:24:23.713Z,16.40
2022-11-20T01:26:53.054Z,16.40
2022-11-20T01:29:24.527Z,15.40
2022-11-20T01:31:53.928Z,14.80
2022-11-20T01:34:23.750Z,17.50
2022-11-20T01:36:54.667Z,19.10
2022-11-20T01:39:26.053Z,18.60
2022-11-20T01:42:14.763Z,19.30
2022-11-20T01:44:49.437Z,18.80
2022-11-20T01:47:28.247Z,20.20
2022-11-20T01:50:20.125Z,20.10
2022-11-20T01:52:57.231Z,21.70
2022-11-20T01:55:30.660Z,23.30
2022-11-20T02:00:27.385Z,21.40
2022-11-20T02:02:59.009Z,21.80
2022-11-20T02:05:34.168Z,22.80
2022-11-20T02:08:04.392Z,24.30
2022-11-20T02:10:33.220Z,23.70
2022-11-20T02:13:20.046Z,21.00
2022-11-20T02:15:48.878Z,19.10
2022-11-20T02:18:19.834Z,19.00
2022-11-20T02:20:51.173Z,19.30
2022-11-20T02:23:29.135Z,20.50
2022-11-20T02:26:04.342Z,19.10
2022-11-20T02:28:32.501Z,21.10
2022-11-20T02:31:00.477Z,22.90
2022-11-20T02:33:28.846Z,21.60
2022-11-20T02:35:57.320Z,22.40
2022-11-20T02:38:25.795Z,19.60
2022-11-20T02:40:55.797Z,17.80
2022-11-20T02:43:24.436Z,18.80
2022-11-20T02:45:52.921Z,18.10
2022-11-20T02:48:20.842Z,16.90
2022-11-20T02:50:48.742Z,17.30
2022-11-20T02:53:16.695Z,16.60
2022-11-20T02:55:44.650Z,16.90
2022-11-20T02:58:12.536Z,20.90
2022-11-20T03:00:40.515Z,22.20
2022-11-20T03:03:09.457Z,20.80
2022-11-20T03:05:37.390Z,20.10
2022-11-20T03:08:05.532Z,16.60
2022-11-20T03:10:34.396Z,16.90
2022-11-20T03:13:02.313Z,16.10
2022-11-20T03:15:32.096Z,15.80
2022-11-20T03:18:00.236Z,16.00
2022-11-20T03:20:28.746Z,16.20
2022-11-20T03:22:56.681Z,14.90
2022-11-20T03:25:25.196Z,15.10
2022-11-20T03:27:53.611Z,15.30
2022-11-20T03:30:27.674Z,15.40
2022-11-20T03:32:58.567Z,15.00
2022-11-20T03:35:27.385Z,14.70
2022-11-20T03:37:55.356Z,14.50
2022-11-20T03:40:23.873Z,14.70
2022-11-20T03:42:51.776Z,13.10
2022-11-20T03:45:20.008Z,13.40
2022-11-20T03:47:48.748Z,14.60
2022-11-20T03:50:16.735Z,14.90
2022-11-20T03:52:44.678Z,14.40
2022-11-20T03:55:12.667Z,14.90
2022-11-20T03:57:40.653Z,14.00
2022-11-20T04:00:10.344Z,16.10
2022-11-20T04:02:38.336Z,15.20
2022-11-20T04:05:06.691Z,15.90
2022-11-20T04:07:35.592Z,15.40
2022-11-20T04:10:03.858Z,14.80
2022-11-20T04:12:35.025Z,14.80
2022-11-20T04:15:03.759Z,15.10
2022-11-20T04:17:31.697Z,14.80
2022-11-20T04:19:59.652Z,15.20
2022-11-20T04:22:29.393Z,15.10
2022-11-20T04:24:59.218Z,16.20
2022-11-20T04:27:27.108Z,18.50
2022-11-20T04:29:55.038Z,19.50
2022-11-20T04:32:26.118Z,20.20
2022-11-20T04:34:55.546Z,17.80
2022-11-20T04:37:23.467Z,18.40
2022-11-20T04:39:51.387Z,17.60
2022-11-20T04:42:29.381Z,17.60
2022-11-20T04:44:58.328Z,15.90
2022-11-20T04:47:27.062Z,15.90
2022-11-20T04:49:54.961Z,14.70
2022-11-20T04:52:23.795Z,14.40
2022-11-20T04:54:54.175Z,14.40
2022-11-20T04:57:22.281Z,14.70
2022-11-20T04:59:51.701Z,14.40
2022-11-20T05:02:19.998Z,14.00
2022-11-20T05:04:48.763Z,14.90
2022-11-20T05:07:17.315Z,13.90
2022-11-20T05:09:45.625Z,15.20
2022-11-20T05:12:16.622Z,14.20
2022-11-20T05:14:44.621Z,14.10
2022-11-20T05:17:13.657Z,15.00
2022-11-20T05:19:41.795Z,15.20
2022-11-20T05:22:09.721Z,16.10
2022-11-20T05:24:38.351Z,15.50
2022-11-20T05:27:06.215Z,15.40
2022-11-20T05:29:34.134Z,15.20
2022-11-20T05:32:02.089Z,15.10
2022-11-20T05:34:30.689Z,15.20
2022-11-20T05:36:58.629Z,15.70
2022-11-20T05:39:26.614Z,16.20
2022-11-20T05:42:14.677Z,16.70
2022-11-20T05:44:44.990Z,15.60
2022-11-20T05:47:12.965Z,17.40
2022-11-20T05:49:40.939Z,16.40
2022-11-20T05:52:08.930Z,15.90
2022-11-20T05:54:36.869Z,16.10
2022-11-20T05:57:06.432Z,16.00
2022-11-20T05:59:34.444Z,16.20
2022-11-20T06:02:03.131Z,16.60
2022-11-20T06:04:33.309Z,18.10
2022-11-20T06:07:03.040Z,18.30
2022-11-20T06:09:32.084Z,17.80
2022-11-20T06:12:01.305Z,17.40
2022-11-20T06:14:30.596Z,17.70
2022-11-20T06:16:58.742Z,18.60
2022-11-20T06:19:27.041Z,18.00
2022-11-20T06:21:55.609Z,19.70
2022-11-20T06:24:26.504Z,20.70
2022-11-20T06:26:55.004Z,23.60
2022-11-20T06:29:23.237Z,24.90
2022-11-20T06:31:52.874Z,25.20
2022-11-20T06:34:23.350Z,23.40
2022-11-20T06:36:51.350Z,25.20
2022-11-20T06:39:20.372Z,26.30
2022-11-20T06:41:48.799Z,26.10
2022-11-20T06:44:17.310Z,26.90
2022-11-20T06:46:45.329Z,29.10
2022-11-20T06:49:13.317Z,24.30
2022-11-20T06:51:41.775Z,25.90
2022-11-20T06:54:10.039Z,25.00
2022-11-20T06:56:43.481Z,21.80
2022-11-20T06:59:12.054Z,21.50
2022-11-20T07:01:40.925Z,28.60
2022-11-20T07:04:10.798Z,38.00
2022-11-20T07:06:46.870Z,40.80
2022-11-20T07:09:15.893Z,36.30
2022-11-20T07:11:48.565Z,41.90
2022-11-20T07:14:18.530Z,52.20
2022-11-20T07:16:50.980Z,43.10
2022-11-20T07:19:19.588Z,38.80
2022-11-20T07:21:50.037Z,29.80
2022-11-20T07:24:19.598Z,27.30
2022-11-20T07:26:50.822Z,24.60
2022-11-20T07:29:20.244Z,26.10
2022-11-20T07:31:48.904Z,23.20
2022-11-20T07:34:17.482Z,24.00
2022-11-20T07:36:47.532Z,22.10
2022-11-20T07:39:16.843Z,23.70
2022-11-20T07:41:46.234Z,27.10
2022-11-20T07:44:15.950Z,26.50
2022-11-20T07:46:50.010Z,26.40
2022-11-20T07:49:19.208Z,26.60
2022-11-20T07:51:51.824Z,25.90
2022-11-20T07:54:23.077Z,21.30
2022-11-20T07:56:51.564Z,21.30
2022-11-20T07:59:27.921Z,22.90
2022-11-20T08:01:56.812Z,23.20
2022-11-20T08:04:32.556Z,22.90
2022-11-20T08:07:02.064Z,24.20
2022-11-20T08:09:30.643Z,24.60
2022-11-20T08:12:24.155Z,26.40
2022-11-20T08:14:55.135Z,26.60
2022-11-20T08:17:24.570Z,27.90
2022-11-20T08:19:53.496Z,24.80
2022-11-20T08:22:22.989Z,23.90
2022-11-20T08:24:52.191Z,26.40
2022-11-20T08:27:24.550Z,31.20
2022-11-20T08:29:55.255Z,29.60
2022-11-20T08:35:09.391Z,28.50
2022-11-20T08:37:42.643Z,28.20
2022-11-20T08:40:17.029Z,24.00
2022-11-20T08:42:51.261Z,22.80
2022-11-20T08:45:21.880Z,21.50
2022-11-20T08:47:50.335Z,24.30
2022-11-20T08:50:20.252Z,23.90
2022-11-20T08:52:51.210Z,23.60
2022-11-20T08:55:20.477Z,21.70
2022-11-20T08:57:56.463Z,23.20
2022-11-20T09:00:24.753Z,23.70
2022-11-20T09:02:55.994Z,22.20
2022-11-20T09:05:25.804Z,24.50
2022-11-20T09:08:02.684Z,25.40
2022-11-20T09:10:33.356Z,27.40
2022-11-20T09:13:03.993Z,28.30
2022-11-20T09:15:34.127Z,28.80
2022-11-20T09:18:06.088Z,31.30
2022-11-20T09:20:34.384Z,32.70
2022-11-20T09:23:08.717Z,30.40
2022-11-20T09:25:41.548Z,29.40
2022-11-20T09:28:10.193Z,29.10
2022-11-20T09:30:38.983Z,28.60
2022-11-20T09:33:08.368Z,28.20
2022-11-20T09:35:37.967Z,30.60
2022-11-20T09:38:31.342Z,32.30
2022-11-20T09:41:07.751Z,28.60
2022-11-20T09:44:31.570Z,26.70
2022-11-20T09:47:25.737Z,26.40
2022-11-20T09:50:19.067Z,25.90
2022-11-20T09:53:12.447Z,24.80
2022-11-20T09:55:42.810Z,25.20
2022-11-20T09:58:49.114Z,25.80
2022-11-20T10:01:27.542Z,25.70
2022-11-20T10:04:12.399Z,23.40
2022-11-20T10:07:30.915Z,17.10
2022-11-20T10:09:58.745Z,13.80
2022-11-20T10:12:41.046Z,13.70
2022-11-20T10:15:37.601Z,14.30
2022-11-20T10:18:29.866Z,12.10
2022-11-20T10:21:39.674Z,10.90
2022-11-20T10:24:29.944Z,13.30
2022-11-20T10:27:33.396Z,14.40
2022-11-20T10:30:09.133Z,12.40
2022-11-20T10:32:48.818Z,11.20
2022-11-20T10:35:35.415Z,11.50
2022-11-20T10:38:19.555Z,10.90
2022-11-20T10:41:17.166Z,11.80
2022-11-20T10:43:47.020Z,12.20
2022-11-20T10:46:23.436Z,14.00
2022-11-20T10:48:54.405Z,13.10
2022-11-20T10:51:41.689Z,14.10
2022-11-20T10:57:23.522Z,12.00
2022-11-20T11:00:07.170Z,12.30
2022-11-20T11:02:41.553Z,12.10
2022-11-20T11:05:48.962Z,12.60
2022-11-20T11:08:27.621Z,12.80
2022-11-20T11:11:04.403Z,21.80
2022-11-20T11:13:35.674Z,21.70
2022-11-20T11:16:06.049Z,24.30
2022-11-20T11:18:38.319Z,20.30
2022-11-20T11:21:06.301Z,19.10
2022-11-20T11:23:44.108Z,19.30
2022-11-20T11:26:25.599Z,19.50
2022-11-20T11:29:02.382Z,16.30
2022-11-20T11:31:37.034Z,14.30
2022-11-20T11:36:55.802Z,15.20
2022-11-20T11:39:28.333Z,14.70
2022-11-20T11:41:58.461Z,14.80
2022-11-20T11:44:53.168Z,17.00
2022-11-20T11:47:29.294Z,15.30
2022-11-20T11:50:09.961Z,19.30
2022-11-20T11:52:55.097Z,13.20
2022-11-20T11:55:47.132Z,18.10
2022-11-20T11:58:18.356Z,15.90
2022-11-20T12:01:24.457Z,14.70
2022-11-20T12:04:14.873Z,14.90
2022-11-20T12:06:49.438Z,16.90
2022-11-20T12:09:25.362Z,15.10
2022-11-20T12:12:39.193Z,15.50
2022-11-20T12:15:26.766Z,15.90
2022-11-20T12:17:55.663Z,16.60
2022-11-20T12:20:33.203Z,16.10
2022-11-20T12:23:37.503Z,14.50
2022-11-20T12:26:20.176Z,13.60
2022-11-20T12:29:14.226Z,16.00
2022-11-20T12:32:22.562Z,15.20
2022-11-20T12:35:23.597Z,17.10
2022-11-20T12:38:42.368Z,17.00
2022-11-20T12:41:57.154Z,16.40
2022-11-20T12:45:13.876Z,16.90
2022-11-20T12:48:14.229Z,16.40
2022-11-20T12:51:19.207Z,16.70
2022-11-20T12:54:15.774Z,15.90
2022-11-20T12:57:09.632Z,16.70
2022-11-20T12:59:45.257Z,17.10
2022-11-20T13:02:40.101Z,17.70
2022-11-20T13:05:46.326Z,31.40
2022-11-20T13:08:35.615Z,37.80
2022-11-20T13:11:17.955Z,22.40
2022-11-20T13:14:04.185Z,21.00
2022-11-20T13:16:44.261Z,19.40
2022-11-20T13:19:19.407Z,15.70
2022-11-20T13:21:52.320Z,15.60
2022-11-20T13:24:33.696Z,16.50
2022-11-20T13:27:24.931Z,18.90
2022-11-20T13:30:15.842Z,20.40
2022-11-20T13:33:24.584Z,21.70
2022-11-20T13:36:06.220Z,20.30
2022-11-20T13:38:57.432Z,18.70
2022-11-20T13:41:45.472Z,18.80
2022-11-20T13:45:00.241Z,18.90
2022-11-20T13:50:05.762Z,19.00
2022-11-20T13:53:03.596Z,20.40
2022-11-20T13:56:10.252Z,20.30
2022-11-20T13:59:05.465Z,21.00
2022-11-20T14:01:37.317Z,19.00
2022-11-20T14:04:16.910Z,21.60
2022-11-20T14:06:50.397Z,19.50
2022-11-20T14:09:32.083Z,18.80
2022-11-20T14:12:05.723Z,19.40
2022-11-20T14:14:35.320Z,20.00
2022-11-20T14:17:51.459Z,21.40
2022-11-20T14:20:29.150Z,22.40
2022-11-20T14:22:59.092Z,21.40
2022-11-20T14:25:35.189Z,22.10
2022-11-20T14:28:06.973Z,24.80
2022-11-20T14:30:52.263Z,26.90
2022-11-20T14:33:27.143Z,26.00
2022-11-20T14:36:02.230Z,26.70
2022-11-20T14:38:35.516Z,25.00
2022-11-20T14:41:10.503Z,24.60
2022-11-20T14:43:49.642Z,26.90
2022-11-20T14:46:20.469Z,25.50
2022-11-20T14:49:02.481Z,29.20
2022-11-20T14:51:47.587Z,26.40
2022-11-20T14:54:22.188Z,30.80
2022-11-20T14:57:08.087Z,30.70
2022-11-20T14:59:37.406Z,28.30
2022-11-20T15:02:11.324Z,33.30
2022-11-20T15:04:49.617Z,27.50
2022-11-20T15:07:31.420Z,30.70
2022-11-20T15:10:06.054Z,29.70
2022-11-20T15:13:01.257Z,38.90
2022-11-20T15:15:30.870Z,36.90
2022-11-20T15:17:59.945Z,33.90
2022-11-20T15:20:32.484Z,32.20
2022-11-20T15:23:01.665Z,35.70
2022-11-20T15:25:30.228Z,31.40
2022-11-20T15:27:59.355Z,32.10
2022-11-20T15:30:27.962Z,31.40
2022-11-20T15:32:58.850Z,34.40
2022-11-20T15:35:27.793Z,42.30
2022-11-20T15:37:56.614Z,44.60
2022-11-20T15:40:25.456Z,46.00
2022-11-20T15:43:14.924Z,61.50
2022-11-20T15:45:55.454Z,52.50
2022-11-20T15:48:55.429Z,34.50
2022-11-20T15:51:35.222Z,28.20
2022-11-20T15:54:21.884Z,25.90
2022-11-20T15:56:53.497Z,25.00
2022-11-20T15:59:22.780Z,22.40
2022-11-20T16:01:50.798Z,23.00
2022-11-20T16:04:19.716Z,25.10
2022-11-20T16:06:49.132Z,25.00
2022-11-20T16:09:18.758Z,24.40
2022-11-20T16:11:46.835Z,23.60
2022-11-20T16:14:34.500Z,24.50
2022-11-20T16:17:02.698Z,24.40
2022-11-20T16:19:31.675Z,30.00
2022-11-20T16:22:04.560Z,32.00
2022-11-20T16:24:34.048Z,30.00
2022-11-20T16:27:02.133Z,31.60
2022-11-20T16:29:30.655Z,28.20
2022-11-20T16:31:59.800Z,28.40
2022-11-20T16:34:28.443Z,28.20
2022-11-20T16:36:57.543Z,27.20
2022-11-20T16:39:27.031Z,28.60
2022-11-20T16:41:56.485Z,26.70
2022-11-20T16:44:28.295Z,24.90
2022-11-20T16:49:28.156Z,24.10
2022-11-20T16:51:59.134Z,27.50
2022-11-20T16:54:28.692Z,34.10
2022-11-20T16:56:57.778Z,32.40
2022-11-20T16:59:25.804Z,42.90
2022-11-20T17:01:54.753Z,40.20
2022-11-20T17:04:24.930Z,29.60
2022-11-20T17:06:54.298Z,30.50
2022-11-20T17:09:22.349Z,32.70
2022-11-20T17:11:51.808Z,32.20
2022-11-20T17:14:20.120Z,32.10
2022-11-20T17:16:50.004Z,35.10
2022-11-20T17:19:20.164Z,35.20
2022-11-20T17:21:52.563Z,33.50
2022-11-20T17:24:26.382Z,35.50
2022-11-20T17:27:03.762Z,36.10
2022-11-20T17:29:40.691Z,42.50
2022-11-20T17:32:10.908Z,43.10
2022-11-20T17:34:40.893Z,49.00
2022-11-20T17:37:10.275Z,51.80
2022-11-20T17:39:42.615Z,52.30
2022-11-20T17:42:28.037Z,55.10
2022-11-20T17:44:59.863Z,55.30
2022-11-20T17:47:28.066Z,53.80
2022-11-20T17:49:56.277Z,74.30
2022-11-20T17:52:26.556Z,57.60
2022-11-20T17:54:56.175Z,63.30
2022-11-20T17:57:45.352Z,51.30
2022-11-20T18:00:16.782Z,52.50
2022-11-20T18:02:49.679Z,47.70
2022-11-20T18:05:20.901Z,45.70
2022-11-20T18:07:53.932Z,45.60
2022-11-20T18:10:22.309Z,49.50
2022-11-20T18:12:50.992Z,58.60
2022-11-20T18:15:20.677Z,57.30
2022-11-20T18:17:50.513Z,56.30
2022-11-20T18:20:29.482Z,55.00
2022-11-20T18:23:02.364Z,56.20
2022-11-20T18:25:30.484Z,53.70
2022-11-20T18:27:59.701Z,53.30
2022-11-20T18:30:27.885Z,53.60
2022-11-20T18:32:56.472Z,51.40
2022-11-20T18:35:26.970Z,50.10
2022-11-20T18:37:55.108Z,44.60
2022-11-20T18:40:26.166Z,49.70
2022-11-20T18:46:30.480Z,47.00
2022-11-20T18:48:59.301Z,42.30
2022-11-20T18:54:13.176Z,37.50
2022-11-20T18:56:41.869Z,39.70
2022-11-20T18:59:13.452Z,40.20
2022-11-20T19:01:53.931Z,38.30
2022-11-20T19:04:33.358Z,38.80
2022-11-20T19:07:01.366Z,36.70
2022-11-20T19:09:29.622Z,36.80
2022-11-20T19:11:57.831Z,37.10
2022-11-20T19:14:27.142Z,38.80
2022-11-20T19:16:56.355Z,40.30
2022-11-20T19:19:31.080Z,40.20
2022-11-20T19:22:04.410Z,41.50
2022-11-20T19:24:32.423Z,47.80
2022-11-20T19:27:01.925Z,57.50
2022-11-20T19:29:32.295Z,61.30
2022-11-20T19:32:00.681Z,59.40
2022-11-20T19:34:58.305Z,47.40
2022-11-20T19:37:26.529Z,38.70
2022-11-20T19:39:57.807Z,41.40
2022-11-20T19:42:26.203Z,40.90
2022-11-20T19:44:54.889Z,42.00
2022-11-20T19:47:27.745Z,38.70
2022-11-20T19:50:11.682Z,44.90
2022-11-20T19:52:42.623Z,52.00
2022-11-20T19:55:11.556Z,46.90
2022-11-20T19:57:47.525Z,47.50
2022-11-20T20:00:24.458Z,48.30
2022-11-20T20:02:59.637Z,45.50
2022-11-20T20:05:36.706Z,48.60
2022-11-20T20:08:05.404Z,53.70
2022-11-20T20:10:34.152Z,48.70
2022-11-20T20:13:06.565Z,42.90
2022-11-20T20:15:35.574Z,43.30
2022-11-20T20:18:05.640Z,39.70
2022-11-20T20:20:34.461Z,46.50
2022-11-20T20:23:07.090Z,46.80
2022-11-20T20:25:38.416Z,48.60
2022-11-20T20:28:08.201Z,45.90
2022-11-20T20:30:36.857Z,44.30
2022-11-20T20:33:05.272Z,46.80
2022-11-20T20:35:35.063Z,46.30
2022-11-20T20:38:03.250Z,51.70
2022-11-20T20:40:32.352Z,50.10
2022-11-20T20:43:01.309Z,47.60
2022-11-20T20:45:29.852Z,42.80
2022-11-20T20:47:58.737Z,38.30
2022-11-20T20:50:27.842Z,35.50
2022-11-20T20:52:58.189Z,33.40
2022-11-20T20:55:26.610Z,32.70
2022-11-20T20:58:00.613Z,34.20
2022-11-20T21:00:32.548Z,33.50
2022-11-20T21:03:00.799Z,31.80
2022-11-20T21:05:29.447Z,30.80
2022-11-20T21:08:18.457Z,35.10
2022-11-20T21:10:49.880Z,38.10
2022-11-20T21:13:18.390Z,41.40
2022-11-20T21:15:49.635Z,44.60
2022-11-20T21:18:22.444Z,42.90
2022-11-20T21:21:10.180Z,38.90
2022-11-20T21:23:39.615Z,35.10
2022-11-20T21:26:09.331Z,30.20
2022-11-20T21:28:45.335Z,31.10
2022-11-20T21:31:27.640Z,32.40
2022-11-20T21:33:57.364Z,32.60
2022-11-20T21:36:28.585Z,31.70
2022-11-20T21:39:00.430Z,29.90
2022-11-20T21:41:30.740Z,28.20
2022-11-20T21:46:54.103Z,27.70
2022-11-20T21:49:23.081Z,26.70
2022-11-20T21:51:51.784Z,27.70
2022-11-20T21:54:20.827Z,31.10
2022-11-20T21:56:48.941Z,28.80
2022-11-20T21:59:17.783Z,27.80
2022-11-20T22:01:45.857Z,28.00
2022-11-20T22:04:15.730Z,28.80
2022-11-20T22:06:43.878Z,27.40
2022-11-20T22:09:13.345Z,29.20
2022-11-20T22:11:43.576Z,27.50
2022-11-20T22:14:26.027Z,27.30
2022-11-20T22:16:54.325Z,25.10
2022-11-20T22:19:23.413Z,26.30
2022-11-20T22:21:51.538Z,27.00
2022-11-20T22:24:22.220Z,30.70
2022-11-20T22:26:51.499Z,28.40
2022-11-20T22:29:21.973Z,31.60
2022-11-20T22:31:53.668Z,29.90
2022-11-20T22:34:21.999Z,30.80
2022-11-20T22:36:51.265Z,30.80
2022-11-20T22:39:22.127Z,30.80
2022-11-20T22:41:50.131Z,26.40
2022-11-20T22:44:18.691Z,28.10
2022-11-20T22:46:46.641Z,30.80
2022-11-20T22:49:14.639Z,33.80
2022-11-20T22:51:43.779Z,32.60
2022-11-20T22:54:13.462Z,32.00
2022-11-20T22:56:41.853Z,30.50
2022-11-20T22:59:10.114Z,27.50
2022-11-20T23:01:39.095Z,28.10
2022-11-20T23:04:10.836Z,27.80
2022-11-20T23:06:39.261Z,27.40
2022-11-20T23:09:08.957Z,32.30
2022-11-20T23:11:38.861Z,38.40
2022-11-20T23:14:15.399Z,40.90
2022-11-20T23:16:43.534Z,43.00
2022-11-20T23:19:14.569Z,40.00
2022-11-20T23:21:44.007Z,41.60
2022-11-20T23:24:12.114Z,41.20
2022-11-20T23:26:41.427Z,43.00
2022-11-20T23:29:10.032Z,41.40
2022-11-20T23:31:38.079Z,39.30
2022-11-20T23:34:06.026Z,47.40
2022-11-20T23:36:34.418Z,47.90
2022-11-20T23:39:04.089Z,43.10
2022-11-20T23:41:32.023Z,46.10
2022-11-20T23:44:00.060Z,46.10
2022-11-20T23:46:28.055Z,42.10
2022-11-20T23:48:56.047Z,41.70
2022-11-20T23:51:24.046Z,44.60
2022-11-20T23:53:52.124Z,48.10
2022-11-20T23:56:20.263Z,47.10
2022-11-20T23:58:48.377Z,42.80
